Time;durP1;ratioP1;P1;durP2;ratioP2;P2;SDS_P1;SDS_P2;PMS_P1;PMS_P2;Temp;Humidity;BMP_temperature;BMP_pressure;BME280_temperature;BME280_humidity;BME280_pressure;Samples;Min_cycle;Max_cycle;Signal;HPM_P1;HPM_P2
2023/05/18 00:02:14;;;;;;;6.45;1.95;;;;;;;10.26;46.45;101030.72;5049915;28;20053;-80
2023/05/18 00:04:41;;;;;;;7.50;2.28;;;;;;;10.27;46.51;101029.81;5049846;28;20053;-80
2023/05/18 00:07:10;;;;;;;7.00;2.33;;;;;;;10.27;46.63;101031.56;5049314;28;20092;-80
2023/05/18 00:09:36;;;;;;;7.35;2.03;;;;;;;10.27;46.20;101031.56;5048723;28;20059;-80
2023/05/18 00:12:04;;;;;;;10.20;2.28;;;;;;;10.24;46.57;101021.16;5052148;28;20153;-80
2023/05/18 00:14:31;;;;;;;6.07;2.25;;;;;;;10.23;46.36;101020.28;5053545;28;20494;-80
2023/05/18 00:17:00;;;;;;;7.47;1.90;;;;;;;10.22;46.73;101023.84;5052059;28;20164;-80
2023/05/18 00:19:28;;;;;;;7.68;1.95;;;;;;;10.21;46.41;101024.72;5053687;28;20115;-80
2023/05/18 00:21:57;;;;;;;9.50;2.40;;;;;;;10.19;46.83;101025.69;5053438;28;20057;-80
2023/05/18 00:24:23;;;;;;;8.38;2.20;;;;;;;10.18;46.48;101024.88;5053254;28;20579;-80
2023/05/18 00:26:51;;;;;;;10.43;2.00;;;;;;;10.15;46.65;101020.56;5052737;28;20145;-80
2023/05/18 00:29:17;;;;;;;7.20;1.92;;;;;;;10.15;46.36;101027.59;5053220;28;20544;-81
2023/05/18 00:31:45;;;;;;;8.25;2.30;;;;;;;10.14;46.54;101028.50;5043559;28;20075;-80
2023/05/18 00:34:13;;;;;;;10.50;2.53;;;;;;;10.11;46.54;101024.22;5052802;28;20072;-80
2023/05/18 00:36:41;;;;;;;6.40;2.05;;;;;;;10.08;47.00;101028.72;5041639;28;20502;-80
2023/05/18 00:39:08;;;;;;;13.25;2.53;;;;;;;10.06;46.51;101027.91;5033381;28;20053;-80
2023/05/18 00:41:36;;;;;;;8.63;2.28;;;;;;;10.03;47.04;101027.09;5033261;28;20057;-80
2023/05/18 00:44:03;;;;;;;11.63;2.22;;;;;;;10.01;46.95;101023.66;5033179;28;20157;-80
2023/05/18 00:46:31;;;;;;;7.03;2.00;;;;;;;9.99;47.17;101030.72;5041517;28;20064;-80
2023/05/18 00:49:02;;;;;;;10.02;2.47;;;;;;;9.99;46.99;101030.72;5122170;22;20059;-79
2023/05/18 00:51:31;;;;;;;14.57;2.45;;;;;;;9.97;47.34;101029.06;5051476;28;20056;-79
2023/05/18 00:53:59;;;;;;;9.73;2.15;;;;;;;9.97;46.69;101026.44;5052008;28;20075;-78
2023/05/18 00:56:27;;;;;;;7.63;2.30;;;;;;;9.94;46.69;101032.66;5051168;28;20053;-78
2023/05/18 00:58:55;;;;;;;7.07;2.25;;;;;;;9.91;46.89;101027.53;5050988;28;20091;-77
2023/05/18 01:01:27;;;;;;;6.10;2.13;;;;;;;9.86;47.54;101025.03;5052669;28;20053;-77
2023/05/18 01:03:55;;;;;;;7.75;2.13;;;;;;;9.85;46.84;101020.69;5043193;28;20095;-78
2023/05/18 01:06:25;;;;;;;7.57;2.13;;;;;;;9.83;46.85;101029.56;5059334;28;20057;-77
2023/05/18 01:08:53;;;;;;;6.63;2.28;;;;;;;9.80;47.12;101024.41;5049420;28;20455;-77
2023/05/18 01:11:46;;;;;;;7.80;2.30;;;;;;;9.75;47.83;101027.16;5031654;28;20049;-78
2023/05/18 01:14:28;;;;;;;5.00;2.03;;;;;;;9.78;47.87;101029.69;5001740;28;20053;-77
2023/05/18 01:17:02;;;;;;;;;;;;;;;9.76;46.82;101029.75;5031516;28;20064;-79
2023/05/18 01:19:52;;;;;;;7.50;1.98;;;;;;;9.74;47.35;101031.59;5031698;28;20358;-78
2023/05/18 01:22:25;;;;;;;5.88;2.13;;;;;;;9.73;48.03;101027.25;5032349;28;20068;-78
2023/05/18 01:25:03;;;;;;;11.15;2.25;;;;;;;9.71;47.94;101031.66;5030618;28;20135;-78
2023/05/18 01:27:36;;;;;;;7.50;2.47;;;;;;;9.70;47.58;101032.59;5031995;28;20055;-78
2023/05/18 01:30:07;;;;;;;8.00;2.25;;;;;;;9.67;48.12;101032.69;5031425;28;20080;-78
2023/05/18 01:32:41;;;;;;;4.47;1.98;;;;;;;9.64;47.84;101035.41;5032652;28;20053;-78
2023/05/18 01:35:08;;;;;;;6.90;2.13;;;;;;;9.64;47.30;101028.38;5031845;28;20058;-78
2023/05/18 01:37:34;;;;;;;9.52;2.30;;;;;;;9.63;47.38;101031.06;5030578;28;20080;-78
2023/05/18 01:40:03;;;;;;;6.45;1.77;;;;;;;9.58;47.38;101030.34;5031187;28;20057;-78
2023/05/18 01:42:35;;;;;;;9.38;2.15;;;;;;;9.55;47.55;101028.69;5047515;28;20065;-78
2023/05/18 01:45:07;;;;;;;4.78;2.25;;;;;;;9.54;47.93;101037.50;5030610;28;20144;-78
2023/05/18 01:47:38;;;;;;;9.80;2.25;;;;;;;9.50;48.25;101030.63;5030474;28;20085;-77
2023/05/18 01:50:12;;;;;;;7.75;2.53;;;;;;;9.46;48.74;101034.25;5031982;28;20064;-78
2023/05/18 01:52:53;;;;;;;6.97;2.20;;;;;;;9.42;48.44;101036.09;5030666;28;20502;-78
2023/05/18 01:55:22;;;;;;;9.10;2.33;;;;;;;9.43;47.97;101037.84;5031712;28;20089;-78
2023/05/18 01:57:51;;;;;;;8.43;2.72;;;;;;;9.40;47.90;101032.66;5029995;28;20572;-77
2023/05/18 02:00:19;;;;;;;6.25;2.30;;;;;;;9.38;47.98;101039.72;5030638;28;20518;-79
2023/05/18 02:02:45;;;;;;;11.63;2.47;;;;;;;9.37;47.67;101038.00;5030873;28;20091;-77
2023/05/18 02:05:12;;;;;;;7.60;2.60;;;;;;;9.35;47.98;101039.84;5031548;28;20093;-78
2023/05/18 02:07:39;;;;;;;8.35;3.05;;;;;;;9.34;47.82;101036.34;5030066;28;20047;-78
2023/05/18 02:10:06;;;;;;;7.00;2.05;;;;;;;9.32;47.98;101038.16;5030599;28;20065;-78
2023/05/18 02:12:33;;;;;;;7.53;2.65;;;;;;;9.30;48.19;101036.50;5030465;28;20092;-78
2023/05/18 02:15:04;;;;;;;5.63;2.13;;;;;;;9.29;47.89;101040.00;5029953;28;20132;-77
2023/05/18 02:17:37;;;;;;;7.75;2.55;;;;;;;9.25;48.20;101040.13;5031317;28;20158;-77
2023/05/18 02:20:06;;;;;;;6.32;2.45;;;;;;;9.23;48.10;101036.66;5030719;28;20068;-77
2023/05/18 02:22:33;;;;;;;7.95;2.30;;;;;;;9.22;48.40;101039.34;5031594;28;20053;-77
2023/05/18 02:25:00;;;;;;;7.55;2.25;;;;;;;9.19;48.09;101037.66;5031249;28;20057;-79
2023/05/18 02:27:27;;;;;;;7.82;2.88;;;;;;;9.17;48.01;101036.88;5029816;28;20111;-77
2023/05/18 02:29:53;;;;;;;7.18;2.63;;;;;;;9.16;48.41;101032.50;5031558;28;20123;-77
2023/05/18 02:32:20;;;;;;;6.30;2.25;;;;;;;9.13;48.57;101030.84;5030325;28;20407;-78
2023/05/18 02:34:51;;;;;;;7.53;2.35;;;;;;;9.11;49.15;101031.78;5029702;28;20076;-77
2023/05/18 02:37:18;;;;;;;10.00;2.70;;;;;;;9.12;48.69;101036.13;5029576;28;20053;-78
2023/05/18 02:39:45;;;;;;;8.07;2.70;;;;;;;9.11;48.85;101039.66;5030267;28;20107;-77
2023/05/18 02:42:12;;;;;;;8.35;2.65;;;;;;;9.10;48.77;101035.31;5029865;28;20088;-77
2023/05/18 02:44:40;;;;;;;8.65;2.80;;;;;;;9.09;48.37;101034.47;5031431;28;20076;-77
2023/05/18 02:47:07;;;;;;;7.40;2.85;;;;;;;9.09;48.59;101038.88;5030370;28;20061;-78
2023/05/18 02:49:34;;;;;;;7.88;2.85;;;;;;;9.07;48.58;101032.78;5030868;28;20509;-77
2023/05/18 02:52:00;;;;;;;6.40;2.50;;;;;;;9.05;48.33;101039.88;5029548;28;20053;-79
2023/05/18 02:54:27;;;;;;;8.50;2.15;;;;;;;9.02;48.33;101035.56;5030933;28;20057;-77
2023/05/18 02:56:55;;;;;;;5.63;2.42;;;;;;;8.99;48.56;101039.16;5029106;28;20061;-77
2023/05/18 02:59:22;;;;;;;7.22;2.85;;;;;;;8.96;48.62;101033.97;5029928;28;20057;-78
2023/05/18 03:01:49;;;;;;;7.68;2.80;;;;;;;8.94;48.50;101034.94;5031332;28;20156;-78
2023/05/18 03:04:16;;;;;;;6.13;2.67;;;;;;;8.92;48.89;101034.09;5029684;28;20057;-78
2023/05/18 03:06:45;;;;;;;11.25;2.88;;;;;;;8.92;49.04;101036.72;5028704;28;20137;-77
2023/05/18 03:09:12;;;;;;;6.50;2.72;;;;;;;8.89;49.03;101035.06;5030737;28;20068;-79
2023/05/18 03:11:38;;;;;;;9.63;3.03;;;;;;;8.88;49.14;101033.34;5029807;28;20065;-77
2023/05/18 03:14:05;;;;;;;6.10;2.22;;;;;;;8.85;49.30;101036.91;5029413;28;20092;-77
2023/05/18 03:16:32;;;;;;;8.10;2.67;;;;;;;8.85;49.18;101043.94;5028866;28;20376;-78
2023/05/18 03:19:00;;;;;;;6.63;2.45;;;;;;;8.83;49.49;101033.47;5030633;28;20068;-77
2023/05/18 03:21:32;;;;;;;7.55;2.50;;;;;;;8.83;49.11;101040.50;5029311;28;20080;-78
2023/05/18 03:23:59;;;;;;;11.25;3.17;;;;;;;8.82;49.35;101044.03;5029505;28;20053;-77
2023/05/18 03:26:29;;;;;;;5.78;2.50;;;;;;;8.80;49.17;101038.81;5029126;28;20490;-77
2023/05/18 03:28:57;;;;;;;11.55;2.83;;;;;;;8.78;49.15;101042.41;5029301;28;20069;-78
2023/05/18 03:31:24;;;;;;;6.80;3.08;;;;;;;8.77;49.06;101040.66;5029117;28;20610;-78
2023/05/18 03:33:51;;;;;;;5.85;2.45;;;;;;;8.75;49.11;101045.09;5030387;28;20136;-77
2023/05/18 03:36:21;;;;;;;6.43;2.60;;;;;;;8.72;49.00;101038.19;5028807;28;20085;-77
2023/05/18 03:38:47;;;;;;;9.93;2.33;;;;;;;8.71;49.14;101039.09;5028888;28;20556;-77
2023/05/18 03:41:14;;;;;;;6.13;2.72;;;;;;;8.69;49.35;101043.50;5029535;28;20057;-79
2023/05/18 03:43:41;;;;;;;6.25;2.50;;;;;;;8.67;49.21;101043.53;5029182;28;20061;-79
2023/05/18 03:46:07;;;;;;;3.47;2.22;;;;;;;8.66;49.40;101043.59;5030868;28;20061;-77
2023/05/18 03:48:35;;;;;;;8.55;2.72;;;;;;;8.64;49.51;101046.28;5032537;28;20061;-78
2023/05/18 03:51:02;;;;;;;9.48;3.28;;;;;;;8.65;49.56;101048.00;5033462;28;20057;-77
2023/05/18 03:53:28;;;;;;;9.05;3.13;;;;;;;8.64;49.52;101053.28;5033417;28;20280;-77
2023/05/18 03:55:55;;;;;;;8.57;2.75;;;;;;;8.63;49.69;101047.16;5032572;28;20092;-77
2023/05/18 03:58:22;;;;;;;6.72;2.60;;;;;;;8.62;50.03;101048.06;5032571;28;20111;-77
2023/05/18 04:00:49;;;;;;;6.82;2.63;;;;;;;8.62;49.99;101047.19;5034657;28;20053;-77
2023/05/18 04:03:15;;;;;;;8.15;2.88;;;;;;;8.60;49.81;101058.59;5033985;28;20064;-79
2023/05/18 04:05:43;;;;;;;9.27;2.92;;;;;;;8.60;50.52;101055.16;5032455;28;20053;-78
2023/05/18 04:08:13;;;;;;;7.32;2.90;;;;;;;8.59;50.10;101063.91;5032509;28;20057;-79
2023/05/18 04:10:43;;;;;;;5.38;2.58;;;;;;;8.56;50.77;101064.00;5034163;28;20180;-78
2023/05/18 04:13:10;;;;;;;6.63;2.72;;;;;;;8.58;50.06;101067.44;5034111;28;20073;-78
2023/05/18 04:15:37;;;;;;;8.80;2.83;;;;;;;8.56;50.06;101067.47;5033162;28;20107;-78
2023/05/18 04:18:04;;;;;;;9.27;2.88;;;;;;;8.55;50.35;101067.50;5033891;28;20156;-78
2023/05/18 04:20:31;;;;;;;8.50;2.85;;;;;;;8.54;50.24;101063.16;5033889;28;20092;-79
2023/05/18 04:22:57;;;;;;;11.13;3.00;;;;;;;8.51;50.30;101061.47;5033833;28;20107;-78
2023/05/18 04:25:26;;;;;;;12.07;3.17;;;;;;;8.50;50.35;101069.38;5033634;28;20073;-77
2023/05/18 04:27:54;;;;;;;9.55;3.28;;;;;;;8.49;50.65;101076.41;5033421;28;20062;-79
2023/05/18 04:30:22;;;;;;;8.10;2.80;;;;;;;8.49;50.37;101076.41;5033518;28;20085;-80
2023/05/18 04:32:49;;;;;;;7.82;2.45;;;;;;;8.48;50.54;101080.78;5032485;28;20060;-77
2023/05/18 04:35:17;;;;;;;8.00;3.30;;;;;;;8.48;50.67;101077.28;5031778;28;20093;-79
2023/05/18 04:37:44;;;;;;;10.07;3.38;;;;;;;8.48;50.81;101080.78;5032201;28;20065;-78
2023/05/18 04:40:12;;;;;;;9.32;2.95;;;;;;;8.50;50.83;101082.50;5032241;28;20112;-78
2023/05/18 04:42:46;;;;;;;9.45;2.60;;;;;;;8.50;50.89;101082.50;5033407;28;20506;-78
2023/05/18 04:45:16;;;;;;;10.05;2.50;;;;;;;8.53;51.07;101085.06;5032918;28;20586;-78
2023/05/18 04:47:45;;;;;;;8.15;2.60;;;;;;;8.55;50.92;101083.25;5031958;28;20085;-78
2023/05/18 04:50:16;;;;;;;9.57;2.80;;;;;;;8.55;51.68;101084.13;5031979;28;20076;-78
2023/05/18 04:52:47;;;;;;;8.00;2.85;;;;;;;8.59;50.86;101087.53;5033194;28;20057;-79
2023/05/18 04:55:18;;;;;;;6.93;2.92;;;;;;;8.59;51.17;101085.78;5032687;28;20228;-78
2023/05/18 04:57:46;;;;;;;5.82;2.63;;;;;;;8.61;50.94;101096.22;5031325;28;20060;-79
2023/05/18 05:00:13;;;;;;;9.02;2.83;;;;;;;8.62;50.90;101092.69;5033176;28;20395;-80
2023/05/18 05:02:40;;;;;;;8.30;2.70;;;;;;;8.64;51.09;101093.53;5033024;28;20080;-78
2023/05/18 05:05:07;;;;;;;10.63;2.90;;;;;;;8.66;51.08;101102.22;5032623;28;20057;-78
2023/05/18 05:07:34;;;;;;;9.75;2.67;;;;;;;8.68;51.29;101094.28;5047951;28;20092;-78
2023/05/18 05:10:01;;;;;;;7.68;3.20;;;;;;;8.69;51.50;101083.75;5031502;28;20112;-78
2023/05/18 05:12:28;;;;;;;10.73;3.28;;;;;;;8.73;51.57;101092.41;5032041;28;20053;-77
2023/05/18 05:14:55;;;;;;;11.45;3.30;;;;;;;8.77;51.77;101091.41;5031336;28;20057;-77
2023/05/18 05:17:22;;;;;;;10.80;3.38;;;;;;;8.81;51.45;101094.81;5032396;28;20140;-79
2023/05/18 05:19:48;;;;;;;6.97;2.88;;;;;;;8.84;51.84;101098.22;5032580;28;20061;-79
2023/05/18 05:22:16;;;;;;;8.88;3.50;;;;;;;8.89;51.65;101089.34;5031223;28;20108;-76
2023/05/18 05:24:43;;;;;;;6.20;3.20;;;;;;;8.94;51.57;101100.59;5032763;28;20057;-77
2023/05/18 05:27:10;;;;;;;6.43;2.60;;;;;;;8.97;51.78;101100.50;5031993;28;20057;-77
2023/05/18 05:29:36;;;;;;;10.40;3.40;;;;;;;9.03;51.67;101100.31;5031640;28;20111;-79
2023/05/18 05:32:04;;;;;;;7.07;2.63;;;;;;;9.08;51.79;101100.19;5031493;28;20061;-79
2023/05/18 05:34:30;;;;;;;8.13;3.13;;;;;;;9.15;51.98;101098.25;5031252;28;20132;-77
2023/05/18 05:36:57;;;;;;;9.65;3.75;;;;;;;9.21;52.16;101101.56;5030145;28;20485;-79
2023/05/18 05:39:23;;;;;;;10.32;3.17;;;;;;;9.29;51.94;101103.06;5031245;28;20053;-78
2023/05/18 05:41:50;;;;;;;11.63;2.90;;;;;;;9.35;52.03;101097.66;5032330;28;20111;-79
2023/05/18 05:44:17;;;;;;;5.88;2.65;;;;;;;9.43;51.83;101102.66;5031170;28;20061;-77
2023/05/18 05:46:43;;;;;;;7.65;2.83;;;;;;;9.49;51.67;101107.72;5030056;28;20103;-79
2023/05/18 05:49:10;;;;;;;10.95;2.85;;;;;;;9.54;51.30;101108.47;5030936;28;20066;-77
2023/05/18 05:51:37;;;;;;;7.88;2.70;;;;;;;9.59;51.31;101105.69;5031753;28;20152;-77
2023/05/18 05:54:03;;;;;;;7.22;2.13;;;;;;;9.63;51.04;101107.31;5029780;28;20453;-79
2023/05/18 05:56:30;;;;;;;10.52;2.47;;;;;;;9.67;51.06;101108.06;5030064;28;20057;-79
2023/05/18 05:58:56;;;;;;;9.40;2.25;;;;;;;9.71;51.16;101101.78;5030028;28;20481;-78
2023/05/18 06:01:23;;;;;;;8.73;2.70;;;;;;;9.75;51.06;101104.28;5030021;28;20061;-77
2023/05/18 06:03:50;;;;;;;13.13;3.10;;;;;;;9.82;51.29;101112.84;5031922;28;20057;-77
2023/05/18 06:06:17;;;;;;;9.60;2.72;;;;;;;9.88;51.25;101114.41;5030147;28;20050;-78
2023/05/18 06:08:43;;;;;;;11.82;2.92;;;;;;;9.95;51.08;101105.44;5030599;28;20536;-78
2023/05/18 06:11:10;;;;;;;7.65;2.75;;;;;;;10.01;51.02;101118.38;5031888;28;20050;-77
2023/05/18 06:13:37;;;;;;;7.78;2.70;;;;;;;10.06;50.89;101120.88;5030814;28;20068;-78
2023/05/18 06:16:04;;;;;;;10.35;2.72;;;;;;;10.12;50.46;101120.66;5031262;28;20410;-78
2023/05/18 06:18:31;;;;;;;8.63;2.50;;;;;;;10.17;50.40;101123.13;5031204;28;20487;-78
2023/05/18 06:20:57;;;;;;;8.10;2.78;;;;;;;10.22;50.44;101130.88;5032034;28;20065;-79
2023/05/18 06:23:24;;;;;;;13.10;3.17;;;;;;;10.26;50.56;101124.59;5030141;28;20498;-78
2023/05/18 06:25:52;;;;;;;7.20;2.95;;;;;;;10.32;50.69;101126.16;5030196;28;20120;-77
2023/05/18 06:28:18;;;;;;;12.30;3.13;;;;;;;10.36;50.33;101125.97;5030025;28;20449;-78
2023/05/18 06:30:45;;;;;;;11.27;2.83;;;;;;;10.40;49.89;101127.59;5030158;28;20061;-78
2023/05/18 06:33:13;;;;;;;10.93;3.00;;;;;;;10.45;49.92;101124.84;5029873;28;20049;-78
2023/05/18 06:35:40;;;;;;;8.82;3.00;;;;;;;10.51;50.32;101129.06;5029651;28;20594;-79
2023/05/18 06:38:07;;;;;;;13.95;3.47;;;;;;;10.54;50.26;101129.78;5029799;28;20555;-77
2023/05/18 06:40:34;;;;;;;9.52;3.47;;;;;;;10.58;50.44;101125.28;5031357;28;20684;-77
2023/05/18 06:43:00;;;;;;;8.23;3.35;;;;;;;10.63;50.08;101133.03;5030223;28;20069;-78
2023/05/18 06:45:27;;;;;;;9.65;3.35;;;;;;;10.67;49.75;101132.00;5030652;28;20053;-79
2023/05/18 06:47:54;;;;;;;10.60;3.22;;;;;;;10.72;50.05;101130.06;5030714;28;20061;-79
2023/05/18 07:21:42;;;;;;;7.63;2.83;;;;;;;11.60;48.82;101133.00;5007747;28;20076;-79
2023/05/18 07:24:08;;;;;;;8.07;3.05;;;;;;;11.68;48.23;101127.41;5010971;28;20058;-79
2023/05/18 07:26:35;;;;;;;8.23;3.22;;;;;;;11.77;48.44;101123.56;4992233;28;20081;-80
2023/05/18 07:29:02;;;;;;;9.25;3.50;;;;;;;11.88;48.12;101136.31;4993295;28;20680;-80
2023/05/18 07:31:40;;;;;;;13.38;3.38;;;;;;;11.93;47.49;101139.63;5010786;28;20491;-79
2023/05/18 07:34:07;;;;;;;10.07;3.28;;;;;;;12.04;47.72;101142.66;5010437;28;20136;-80
2023/05/18 07:36:34;;;;;;;10.88;3.38;;;;;;;12.10;47.57;101147.75;4992609;28;20097;-80
2023/05/18 07:39:00;;;;;;;8.65;2.75;;;;;;;12.18;47.65;101149.22;5010572;28;20120;-79
2023/05/18 07:41:27;;;;;;;9.88;3.72;;;;;;;12.23;47.53;101153.38;5010861;28;20069;-80
2023/05/18 07:43:53;;;;;;;10.18;3.58;;;;;;;12.29;47.28;101149.63;5010759;28;20495;-79
2023/05/18 07:46:20;;;;;;;8.52;3.00;;;;;;;12.34;47.29;101145.00;5010247;28;20490;-79
2023/05/18 07:48:47;;;;;;;7.43;3.67;;;;;;;12.41;47.14;101144.75;5010028;28;20057;-79
2023/05/18 07:51:13;;;;;;;12.02;3.97;;;;;;;12.49;47.05;101142.66;4993116;28;20058;-79
2023/05/18 07:53:50;;;;;;;8.27;3.67;;;;;;;12.54;47.05;101150.34;5010030;28;20062;-80
2023/05/18 07:56:17;;;;;;;13.07;4.05;;;;;;;12.66;47.29;101138.41;5010291;28;20152;-80
2023/05/18 07:58:44;;;;;;;10.02;3.90;;;;;;;12.76;47.01;101145.84;5010068;28;20054;-79
2023/05/18 08:01:10;;;;;;;8.50;3.38;;;;;;;12.85;47.04;101155.19;5010289;28;20557;-79
2023/05/18 08:03:37;;;;;;;11.45;4.22;;;;;;;12.95;47.15;101153.00;4993086;28;20062;-80
2023/05/18 08:06:04;;;;;;;9.95;4.45;;;;;;;13.07;47.01;101156.00;5010089;28;20058;-80
2023/05/18 08:08:30;;;;;;;9.38;3.30;;;;;;;13.21;46.94;101156.25;5009778;28;20057;-80
2023/05/18 08:10:58;;;;;;;7.60;3.30;;;;;;;13.35;46.97;101150.28;5010370;28;20058;-80
2023/05/18 08:13:38;;;;;;;11.48;3.70;;;;;;;13.51;46.42;101152.28;5008893;28;20069;-80
2023/05/18 08:16:05;;;;;;;10.30;3.33;;;;;;;13.63;46.17;101145.53;5009428;28;20463;-79
2023/05/18 08:18:47;;;;;;;;;;;;;;;13.72;46.06;101145.09;5009850;28;20419;-80
2023/05/18 08:21:28;;;;;;;7.53;2.83;;;;;;;13.89;45.95;101151.38;4999503;28;20302;-80
2023/05/18 08:23:55;;;;;;;9.15;3.50;;;;;;;13.94;45.94;101147.56;5009029;28;20061;-80
2023/05/18 08:26:21;;;;;;;6.60;3.35;;;;;;;14.01;45.60;101155.19;5009764;28;20054;-78
2023/05/18 08:28:48;;;;;;;11.07;3.50;;;;;;;14.06;45.44;101145.25;5009732;28;20050;-79
2023/05/18 08:31:21;;;;;;;7.93;3.45;;;;;;;14.12;45.03;101146.72;5008909;28;20049;-80
2023/05/18 08:33:48;;;;;;;;;;;;;;;14.18;45.48;101149.94;4995731;28;20053;-79
2023/05/18 08:36:24;;;;;;;14.18;3.47;;;;;;;14.26;44.51;101151.34;5013007;28;19921;-80
2023/05/18 08:38:52;;;;;;;9.32;2.88;;;;;;;14.31;44.51;101146.66;5013443;28;20069;-80
2023/05/18 08:41:25;;;;;;;11.65;3.55;;;;;;;14.29;44.36;101152.06;5013675;28;20049;-80
2023/05/18 08:44:18;;;;;;;;;;;;;;;14.27;44.56;101150.41;5014308;28;20054;-80
2023/05/18 08:46:49;;;;;;;15.73;3.60;;;;;;;14.27;43.99;101142.44;5012688;28;19971;-79
2023/05/18 08:49:17;;;;;;;9.18;4.03;;;;;;;14.22;44.66;101142.69;4995921;28;20058;-79
2023/05/18 08:51:55;;;;;;;14.43;3.95;;;;;;;14.18;44.38;101147.31;5013698;28;20054;-79
2023/05/18 08:54:25;;;;;;;12.10;3.75;;;;;;;14.24;44.91;101145.28;5012372;28;20483;-79
2023/05/18 09:00:25;;;;;;;6.85;3.05;;;;;;;14.41;44.77;101147.06;5013618;28;20069;-79
2023/05/18 09:02:56;;;;;;;9.35;3.35;;;;;;;14.45;44.16;101146.84;4995923;28;20057;-78
2023/05/18 09:06:00;;;;;;;6.35;2.75;;;;;;;14.52;44.68;101141.22;5012855;28;20065;-79
2023/05/18 09:09:05;;;;;;;10.43;3.63;;;;;;;14.59;43.91;101140.81;5011463;28;20115;-79
2023/05/18 09:11:35;;;;;;;8.70;2.88;;;;;;;14.71;44.90;101139.34;5012738;28;20077;-79
2023/05/18 09:14:32;;;;;;;8.73;2.80;;;;;;;14.85;44.07;101138.63;4949724;28;20063;-79
2023/05/18 09:20:50;;;;;;;5.75;2.83;;;;;;;15.16;44.14;101132.59;4951744;29;20055;-79
2023/05/18 09:24:22;;;;;;;7.32;2.65;;;;;;;15.26;43.83;101119.72;4935933;29;20055;-79
2023/05/18 09:27:15;;;;;;;8.90;2.50;;;;;;;15.45;43.76;101127.50;4964710;28;20092;-79
2023/05/18 09:33:22;;;;;;;7.90;2.47;;;;;;;15.50;43.26;101118.34;5011984;28;20494;-79
2023/05/18 09:35:55;;;;;;;5.40;2.25;;;;;;;15.56;43.07;101113.63;5010896;28;20057;-80
2023/05/18 09:38:27;;;;;;;9.05;2.40;;;;;;;15.58;42.96;101117.06;5011821;28;20138;-82
2023/05/18 09:44:33;;;;;;;5.53;2.35;;;;;;;15.71;42.81;101109.25;4950435;28;20074;-82
2023/05/18 09:47:43;;;;;;;6.20;2.10;;;;;;;15.70;42.36;101103.09;4930515;28;20063;-82
2023/05/18 09:50:36;;;;;;;7.35;1.90;;;;;;;15.81;42.91;101101.63;4982108;28;20087;-81
2023/05/18 09:53:39;;;;;;;7.72;2.60;;;;;;;15.84;43.15;101096.13;4936902;28;20054;-81
2023/05/18 09:56:26;;;;;;;5.80;1.88;;;;;;;15.89;43.16;101105.53;4968212;28;20054;-81
2023/05/18 09:59:16;;;;;;;6.22;1.92;;;;;;;15.99;42.70;101100.59;4961836;28;20069;-81
2023/05/18 10:02:07;;;;;;;7.22;1.70;;;;;;;16.12;43.06;101105.19;4978190;28;20059;-80
2023/05/18 10:04:49;;;;;;;8.13;2.70;;;;;;;16.24;42.70;101093.84;5009248;28;20517;-80
2023/05/18 10:07:24;;;;;;;5.00;2.00;;;;;;;16.31;42.35;101096.97;5011223;28;20054;-79
2023/05/18 10:10:19;;;;;;;5.95;1.80;;;;;;;16.39;42.76;101096.50;4997764;28;20629;-80
2023/05/18 10:16:58;;;;;;;;;;;;;;;;;;;;;
2023/05/18 10:19:50;;;;;;;12.93;2.10;;;;;;;16.66;42.57;101085.16;4941668;29;20244;-80
2023/05/18 10:22:29;;;;;;;4.32;1.58;;;;;;;16.72;42.78;101083.91;4950956;29;20185;-80
2023/05/18 10:24:57;;;;;;;5.80;1.88;;;;;;;16.76;41.54;101085.44;4950213;29;20644;-81
2023/05/18 10:28:29;;;;;;;;;;;;;;;;;;;;;
2023/05/18 10:31:34;;;;;;;8.10;2.35;;;;;;;16.94;42.09;101089.59;4950079;29;20066;-80
2023/05/18 10:34:31;;;;;;;13.80;2.55;;;;;;;17.00;41.21;101091.03;4939404;29;20134;-81
2023/05/18 10:37:53;;;;;;;3.92;1.73;;;;;;;17.05;41.46;101082.81;4933794;28;20054;-81
2023/05/18 10:41:06;;;;;;;5.82;2.30;;;;;;;17.24;42.33;101084.28;4950051;29;20332;-81
2023/05/18 10:43:45;;;;;;;6.85;1.88;;;;;;;17.50;43.50;101077.28;4950629;29;20063;-81
2023/05/18 10:46:15;;;;;;;4.75;1.77;;;;;;;17.78;42.60;101080.78;4950348;29;20077;-81
2023/05/18 10:48:50;;;;;;;9.95;2.42;;;;;;;18.12;42.20;101077.69;4949800;29;20171;-79
2023/05/18 10:55:04;;;;;;;;;;;;;;;;;;;;;
2023/05/18 10:58:04;;;;;;;6.65;1.92;;;;;;;20.14;39.73;101066.94;4902764;29;20156;-83
2023/05/18 11:00:38;;;;;;;9.48;2.08;;;;;;;20.75;41.26;101076.47;5010865;28;20054;-82
2023/05/18 11:03:31;;;;;;;12.30;2.08;;;;;;;21.35;40.06;101070.84;5011081;28;20490;-81
2023/05/18 11:06:27;;;;;;;6.00;1.80;;;;;;;21.99;38.15;101064.78;4993108;28;20057;-82
2023/05/18 11:12:08;;;;;;;5.95;1.98;;;;;;;23.13;36.96;101055.84;5011124;28;20092;-83
2023/05/18 11:15:23;;;;;;;6.15;1.60;;;;;;;23.57;36.33;101054.66;5010814;28;20383;-82
2023/05/18 11:18:33;;;;;;;6.43;1.83;;;;;;;24.08;36.13;101057.16;4905729;29;20051;-82
2023/05/18 11:25:27;;;;;;;6.35;2.00;;;;;;;24.75;34.99;101044.66;4891503;29;20095;-83
2023/05/18 11:28:29;;;;;;;5.80;1.77;;;;;;;24.87;32.60;101048.00;4891244;29;20064;-79
2023/05/18 11:34:59;;;;;;;7.18;2.08;;;;;;;25.28;34.31;101040.38;4855200;29;20068;-81
2023/05/18 11:37:41;;;;;;;6.82;2.15;;;;;;;25.58;34.50;101035.66;4892181;29;20053;-81
2023/05/18 11:40:50;;;;;;;4.53;1.58;;;;;;;25.82;33.96;101034.13;4854856;29;20054;-84
2023/05/18 11:43:44;;;;;;;6.28;1.88;;;;;;;26.11;32.07;101041.09;4855267;29;20131;-84
2023/05/18 11:46:50;;;;;;;4.53;1.73;;;;;;;26.19;32.20;101029.50;4854533;29;20057;-83
2023/05/18 11:50:10;;;;;;;;;;;;;;;;;;;;;
2023/05/18 11:56:40;;;;;;;5.72;2.08;;;;;;;26.46;31.16;101034.91;4935529;28;20110;-83
2023/05/18 12:02:46;;;;;;;5.18;1.80;;;;;;;26.84;30.60;101040.81;4967682;28;20065;-81
2023/05/18 12:05:34;;;;;;;4.30;1.75;;;;;;;26.96;30.62;101032.41;4978648;28;20054;-84
2023/05/18 12:09:01;;;;;;;5.40;1.60;;;;;;;27.13;30.94;101036.84;5011639;28;20049;-82
2023/05/18 12:11:45;;;;;;;10.45;2.10;;;;;;;27.42;30.52;101023.88;4951055;29;20155;-81
2023/05/18 12:14:52;;;;;;;4.70;1.55;;;;;;;27.56;30.51;101028.63;4952449;28;20059;-84
2023/05/18 12:17:50;;;;;;;4.55;1.73;;;;;;;27.81;29.19;101022.38;4895573;29;20052;-83
2023/05/18 12:21:00;;;;;;;;;;;;;;;;;;;;;
2023/05/18 12:24:17;;;;;;;4.22;1.38;;;;;;;28.20;29.14;101013.50;5014323;28;20054;-83
2023/05/18 12:27:03;;;;;;;5.07;1.70;;;;;;;28.51;29.18;101008.38;4985100;28;20538;-80
2023/05/18 12:34:46;;;;;;;;;;;;;;;;;;;;;
2023/05/18 12:38:02;;;;;;;4.65;1.73;;;;;;;29.11;28.02;101003.28;4993027;28;20057;-82
2023/05/18 12:47:23;;;;;;;5.72;1.75;;;;;;;29.38;26.73;100990.25;5014171;28;20057;-83
2023/05/18 12:52:28;;;;;;;4.10;1.77;;;;;;;29.57;26.76;100988.91;5050553;28;20061;-82
2023/05/18 12:54:59;;;;;;;3.78;1.55;;;;;;;29.70;28.04;100982.00;5034106;28;20087;-82
2023/05/18 12:57:26;;;;;;;3.60;1.30;;;;;;;29.85;27.22;100979.31;5051713;28;20498;-82
2023/05/18 12:59:53;;;;;;;4.45;1.67;;;;;;;30.01;26.23;100972.88;5052292;28;20077;-82
2023/05/18 13:02:31;;;;;;;4.05;1.63;;;;;;;30.10;25.20;100979.91;5034368;28;20140;-82
2023/05/18 13:05:04;;;;;;;3.33;1.30;;;;;;;30.18;24.63;100981.69;5034236;28;20144;-82
2023/05/18 13:07:30;;;;;;;3.75;1.75;;;;;;;30.21;24.82;100975.91;5033808;28;20053;-82
2023/05/18 13:10:04;;;;;;;5.22;1.60;;;;;;;30.21;23.77;100977.75;5033867;28;20104;-82
2023/05/18 13:12:36;;;;;;;4.20;1.75;;;;;;;30.24;24.05;100972.78;5034275;28;20057;-82
2023/05/18 13:15:11;;;;;;;4.32;1.60;;;;;;;30.27;25.14;100966.97;5033516;28;20063;-82
2023/05/18 13:17:37;;;;;;;4.20;1.80;;;;;;;30.37;24.39;100954.97;5051480;28;20084;-82
2023/05/18 13:20:14;;;;;;;3.95;1.42;;;;;;;30.35;24.08;100976.06;5050206;28;20057;-82
2023/05/18 13:22:42;;;;;;;3.45;1.30;;;;;;;30.37;24.49;100963.97;5051423;28;20519;-82
2023/05/18 13:25:09;;;;;;;6.35;1.77;;;;;;;30.40;23.71;100965.47;5033630;28;20165;-81
2023/05/18 13:27:37;;;;;;;4.82;1.58;;;;;;;30.47;24.39;100960.97;5051568;28;20053;-82
2023/05/18 13:30:04;;;;;;;5.10;1.63;;;;;;;30.56;24.72;100965.25;5051571;28;20453;-82
2023/05/18 13:32:30;;;;;;;6.80;2.10;;;;;;;30.72;24.39;100959.78;5033821;28;20071;-82
2023/05/18 13:34:57;;;;;;;5.22;1.58;;;;;;;30.88;23.53;100958.72;5033074;28;20124;-82